This is the latest recevied weather packets stored in our database for station/object N9BLE. If no packets are shown the sender has not sent any weather packets the latest 10 day(s).
| Time | Temp. | Humidity | Pressure | Rain* | Wind** | Luminosity | Snow |
|---|---|---|---|---|---|---|---|
| 1777999353 | 12.78° C | 39% | 1012.7 hPa | 0 mm | - | 291 W/m² | - |
| 1777999051 | 12.78° C | 38% | 1012.8 hPa | 0 mm | - | 279 W/m² | - |
| 1777998750 | 12.78° C | 39% | 1013.3 hPa | 0 mm | - | 215 W/m² | - |
| 1777998447 | 12.78° C | 39% | 1013.2 hPa | 0 mm | - | 227 W/m² | - |
| 1777998144 | 12.22° C | 38% | 1013.1 hPa | 0 mm | - | 219 W/m² | - |
| 1777997840 | 12.78° C | 37% | 1012.9 hPa | 0 mm | - | 248 W/m² | - |
| 1777997538 | 12.22° C | 41% | 1013.1 hPa | 0 mm | - | 228 W/m² | - |
| 1777997235 | 11.67° C | 38% | 1012.9 hPa | 0 mm | - | 246 W/m² | - |
| 1777996933 | 12.22° C | 38% | 1012.8 hPa | 0 mm | - | 295 W/m² | - |
| 1777996629 | 11.67° C | 39% | 1012.8 hPa | 0 mm | - | 260 W/m² | - |
| 1777996326 | 12.22° C | 39% | 1012.9 hPa | 0 mm | - | 246 W/m² | - |
| 1777996022 | 12.22° C | 37% | 1012.7 hPa | 0 mm | - | 262 W/m² | - |
| 1777995718 | 11.67° C | 43% | 1012.7 hPa | 0 mm | - | 252 W/m² | - |
| 1777995415 | 11.67° C | 36% | 1012.7 hPa | 0 mm | - | 241 W/m² | - |
| 1777995112 | 12.22° C | 38% | 1012.6 hPa | 0 mm | - | 229 W/m² | - |
| 1777994809 | 12.22° C | 40% | 1012.7 hPa | 0 mm | - | 206 W/m² | - |
| 1777994504 | 11.67° C | 43% | 1012.7 hPa | 0 mm | - | 243 W/m² | - |
| 1777994200 | 11.11° C | 40% | 1012.5 hPa | 0 mm | - | 215 W/m² | - |
| 1777993898 | 11.67° C | 40% | 1012.5 hPa | 0 mm | - | 207 W/m² | - |
| 1777993593 | 11.11° C | 43% | 1012.5 hPa | 0 mm | - | 218 W/m² | - |
| 1777993291 | 11.11° C | 47% | 1012.7 hPa | 0 mm | - | 193 W/m² | - |
| 1777992986 | 10.56° C | 47% | 1012.8 hPa | 0 mm | - | 187 W/m² | - |
| 1777992685 | 10.56° C | 48% | 1012.7 hPa | 0 mm | - | 167 W/m² | - |
| 1777992382 | 10.56° C | 46% | 1012.7 hPa | 0 mm | - | 184 W/m² | - |
| 1777992080 | 10.56° C | 47% | 1012.6 hPa | 0 mm | - | 190 W/m² | - |
* Rain latest hour (hover to see other rain measurements)
** Current wind speed in m/s (hover to see current wind gust speed)